sensor_id;sensor_type;location;lat;lon;timestamp;temperature;humidity
5806;DHT22;2929;50.810;8.342;2023-04-22T00:01:05;7.80;99.90
5806;DHT22;2929;50.810;8.342;2023-04-22T00:03:32;7.80;99.90
5806;DHT22;2929;50.810;8.342;2023-04-22T00:05:59;7.60;99.90
5806;DHT22;2929;50.810;8.342;2023-04-22T00:08:26;7.60;99.90
5806;DHT22;2929;50.810;8.342;2023-04-22T00:10:55;7.50;99.90
5806;DHT22;2929;50.810;8.342;2023-04-22T00:13:22;7.60;99.90
5806;DHT22;2929;50.810;8.342;2023-04-22T00:15:49;7.50;99.90
5806;DHT22;2929;50.810;8.342;2023-04-22T00:18:16;7.50;99.90
5806;DHT22;2929;50.810;8.342;2023-04-22T00:20:43;7.40;99.90
5806;DHT22;2929;50.810;8.342;2023-04-22T00:23:11;7.30;99.90
5806;DHT22;2929;50.810;8.342;2023-04-22T00:25:38;7.30;99.90
5806;DHT22;2929;50.810;8.342;2023-04-22T00:28:07;7.20;99.90
5806;DHT22;2929;50.810;8.342;2023-04-22T00:30:34;7.30;99.90
5806;DHT22;2929;50.810;8.342;2023-04-22T00:33:01;7.30;99.90
5806;DHT22;2929;50.810;8.342;2023-04-22T00:35:29;7.40;99.90
5806;DHT22;2929;50.810;8.342;2023-04-22T00:37:56;7.40;99.90
5806;DHT22;2929;50.810;8.342;2023-04-22T00:40:23;7.40;99.90
5806;DHT22;2929;50.810;8.342;2023-04-22T00:42:50;7.40;99.90
5806;DHT22;2929;50.810;8.342;2023-04-22T00:45:19;7.40;99.90
5806;DHT22;2929;50.810;8.342;2023-04-22T00:47:47;7.50;99.90
5806;DHT22;2929;50.810;8.342;2023-04-22T00:50:14;7.50;99.90
5806;DHT22;2929;50.810;8.342;2023-04-22T00:52:41;7.50;99.90
5806;DHT22;2929;50.810;8.342;2023-04-22T00:55:09;7.60;99.90
5806;DHT22;2929;50.810;8.342;2023-04-22T00:57:37;7.60;99.90
5806;DHT22;2929;50.810;8.342;2023-04-22T01:00:06;7.60;99.90
5806;DHT22;2929;50.810;8.342;2023-04-22T01:02:36;7.40;99.90
5806;DHT22;2929;50.810;8.342;2023-04-22T01:05:04;7.40;99.90
5806;DHT22;2929;50.810;8.342;2023-04-22T01:07:32;7.40;99.90
5806;DHT22;2929;50.810;8.342;2023-04-22T01:10:00;7.30;99.90
5806;DHT22;2929;50.810;8.342;2023-04-22T01:12:27;7.40;99.90
5806;DHT22;2929;50.810;8.342;2023-04-22T01:14:55;7.50;99.90
5806;DHT22;2929;50.810;8.342;2023-04-22T01:17:22;7.50;99.90
5806;DHT22;2929;50.810;8.342;2023-04-22T01:19:51;7.50;99.90
5806;DHT22;2929;50.810;8.342;2023-04-22T01:22:20;7.60;99.90
5806;DHT22;2929;50.810;8.342;2023-04-22T01:24:50;7.60;99.90
5806;DHT22;2929;50.810;8.342;2023-04-22T01:27:17;7.60;99.90
5806;DHT22;2929;50.810;8.342;2023-04-22T01:29:45;7.60;99.90
5806;DHT22;2929;50.810;8.342;2023-04-22T01:32:12;7.60;99.90
5806;DHT22;2929;50.810;8.342;2023-04-22T01:34:39;7.50;99.90
5806;DHT22;2929;50.810;8.342;2023-04-22T01:37:06;7.50;99.90
5806;DHT22;2929;50.810;8.342;2023-04-22T01:39:34;7.50;99.90
5806;DHT22;2929;50.810;8.342;2023-04-22T01:42:03;7.50;99.90
5806;DHT22;2929;50.810;8.342;2023-04-22T01:44:30;7.40;99.90
5806;DHT22;2929;50.810;8.342;2023-04-22T01:46:57;7.40;99.90
5806;DHT22;2929;50.810;8.342;2023-04-22T01:49:24;7.40;99.90
5806;DHT22;2929;50.810;8.342;2023-04-22T01:51:51;7.40;99.90
5806;DHT22;2929;50.810;8.342;2023-04-22T01:54:19;7.30;99.90
5806;DHT22;2929;50.810;8.342;2023-04-22T01:56:50;7.30;99.90
5806;DHT22;2929;50.810;8.342;2023-04-22T01:59:18;7.20;99.90
5806;DHT22;2929;50.810;8.342;2023-04-22T02:01:46;7.30;99.90
5806;DHT22;2929;50.810;8.342;2023-04-22T02:04:13;7.30;99.90
5806;DHT22;2929;50.810;8.342;2023-04-22T02:06:40;7.20;99.90
5806;DHT22;2929;50.810;8.342;2023-04-22T02:09:08;7.20;99.90
5806;DHT22;2929;50.810;8.342;2023-04-22T02:11:36;7.00;99.90
5806;DHT22;2929;50.810;8.342;2023-04-22T02:14:04;7.10;99.90
5806;DHT22;2929;50.810;8.342;2023-04-22T02:16:32;7.10;99.90
5806;DHT22;2929;50.810;8.342;2023-04-22T02:18:59;7.00;99.90
5806;DHT22;2929;50.810;8.342;2023-04-22T02:21:27;7.00;99.90
5806;DHT22;2929;50.810;8.342;2023-04-22T02:23:54;7.00;99.90
5806;DHT22;2929;50.810;8.342;2023-04-22T02:26:21;7.00;99.90
5806;DHT22;2929;50.810;8.342;2023-04-22T02:28:50;7.00;99.90
5806;DHT22;2929;50.810;8.342;2023-04-22T02:31:17;7.00;99.90
5806;DHT22;2929;50.810;8.342;2023-04-22T02:33:46;7.10;99.90
5806;DHT22;2929;50.810;8.342;2023-04-22T02:36:14;7.00;99.90
5806;DHT22;2929;50.810;8.342;2023-04-22T02:38:41;7.10;99.90
5806;DHT22;2929;50.810;8.342;2023-04-22T02:41:08;7.10;99.90
5806;DHT22;2929;50.810;8.342;2023-04-22T02:43:36;7.10;99.90
5806;DHT22;2929;50.810;8.342;2023-04-22T02:46:03;7.10;99.90
5806;DHT22;2929;50.810;8.342;2023-04-22T02:48:30;7.10;99.90
5806;DHT22;2929;50.810;8.342;2023-04-22T02:50:58;7.00;99.90
5806;DHT22;2929;50.810;8.342;2023-04-22T02:53:25;7.00;99.90
5806;DHT22;2929;50.810;8.342;2023-04-22T02:55:52;7.10;99.90
5806;DHT22;2929;50.810;8.342;2023-04-22T02:58:20;7.10;99.90
5806;DHT22;2929;50.810;8.342;2023-04-22T03:00:47;7.20;99.90
5806;DHT22;2929;50.810;8.342;2023-04-22T03:03:14;7.20;99.90
5806;DHT22;2929;50.810;8.342;2023-04-22T03:05:41;7.20;99.90
5806;DHT22;2929;50.810;8.342;2023-04-22T03:08:10;7.20;99.90
5806;DHT22;2929;50.810;8.342;2023-04-22T03:10:37;7.20;99.90
5806;DHT22;2929;50.810;8.342;2023-04-22T03:13:05;7.30;99.90
5806;DHT22;2929;50.810;8.342;2023-04-22T03:15:32;7.30;99.90
5806;DHT22;2929;50.810;8.342;2023-04-22T03:18:00;7.30;99.90
5806;DHT22;2929;50.810;8.342;2023-04-22T03:20:27;7.30;99.90
5806;DHT22;2929;50.810;8.342;2023-04-22T03:22:54;7.30;99.90
5806;DHT22;2929;50.810;8.342;2023-04-22T03:25:23;7.20;99.90
5806;DHT22;2929;50.810;8.342;2023-04-22T03:27:53;7.20;99.90
5806;DHT22;2929;50.810;8.342;2023-04-22T03:30:20;7.20;99.90
5806;DHT22;2929;50.810;8.342;2023-04-22T03:32:47;7.20;99.90
5806;DHT22;2929;50.810;8.342;2023-04-22T03:35:21;7.20;99.90
5806;DHT22;2929;50.810;8.342;2023-04-22T03:37:50;7.10;99.90
5806;DHT22;2929;50.810;8.342;2023-04-22T03:40:23;7.10;99.90
5806;DHT22;2929;50.810;8.342;2023-04-22T03:42:50;7.10;99.90
5806;DHT22;2929;50.810;8.342;2023-04-22T03:45:19;7.10;99.90
5806;DHT22;2929;50.810;8.342;2023-04-22T03:47:54;7.20;99.90
5806;DHT22;2929;50.810;8.342;2023-04-22T03:50:29;7.10;99.90
5806;DHT22;2929;50.810;8.342;2023-04-22T03:52:58;7.10;99.90
5806;DHT22;2929;50.810;8.342;2023-04-22T03:55:27;7.00;99.90
5806;DHT22;2929;50.810;8.342;2023-04-22T03:57:55;7.10;99.90
5806;DHT22;2929;50.810;8.342;2023-04-22T04:00:22;7.10;99.90
5806;DHT22;2929;50.810;8.342;2023-04-22T04:03:00;7.10;99.90
5806;DHT22;2929;50.810;8.342;2023-04-22T04:05:28;7.10;99.90
5806;DHT22;2929;50.810;8.342;2023-04-22T04:07:55;7.00;99.90
5806;DHT22;2929;50.810;8.342;2023-04-22T04:10:24;6.90;99.90
5806;DHT22;2929;50.810;8.342;2023-04-22T04:12:54;6.90;99.90
5806;DHT22;2929;50.810;8.342;2023-04-22T04:15:23;6.90;99.90
5806;DHT22;2929;50.810;8.342;2023-04-22T04:17:51;6.80;99.90
5806;DHT22;2929;50.810;8.342;2023-04-22T04:20:19;6.80;99.90
5806;DHT22;2929;50.810;8.342;2023-04-22T04:22:46;7.00;99.90
5806;DHT22;2929;50.810;8.342;2023-04-22T04:25:13;7.00;99.90
5806;DHT22;2929;50.810;8.342;2023-04-22T04:27:43;7.00;99.90
5806;DHT22;2929;50.810;8.342;2023-04-22T04:30:14;7.00;99.90
5806;DHT22;2929;50.810;8.342;2023-04-22T04:32:53;6.90;99.90
5806;DHT22;2929;50.810;8.342;2023-04-22T04:35:20;6.80;99.90
5806;DHT22;2929;50.810;8.342;2023-04-22T04:37:54;6.70;99.90
5806;DHT22;2929;50.810;8.342;2023-04-22T04:40:22;6.80;99.90
5806;DHT22;2929;50.810;8.342;2023-04-22T04:43:02;6.80;99.90
5806;DHT22;2929;50.810;8.342;2023-04-22T04:45:39;6.70;99.90
5806;DHT22;2929;50.810;8.342;2023-04-22T04:48:12;6.80;99.90
5806;DHT22;2929;50.810;8.342;2023-04-22T04:50:41;6.80;99.90
5806;DHT22;2929;50.810;8.342;2023-04-22T04:53:09;6.90;99.90
5806;DHT22;2929;50.810;8.342;2023-04-22T04:55:39;6.80;99.90
5806;DHT22;2929;50.810;8.342;2023-04-22T04:58:14;6.70;99.90
5806;DHT22;2929;50.810;8.342;2023-04-22T05:00:42;6.70;99.90
5806;DHT22;2929;50.810;8.342;2023-04-22T05:03:11;6.80;99.90
5806;DHT22;2929;50.810;8.342;2023-04-22T05:05:38;6.80;99.90
5806;DHT22;2929;50.810;8.342;2023-04-22T05:08:05;6.90;99.90
5806;DHT22;2929;50.810;8.342;2023-04-22T05:10:35;7.00;99.90
5806;DHT22;2929;50.810;8.342;2023-04-22T05:13:03;7.00;99.90
5806;DHT22;2929;50.810;8.342;2023-04-22T05:15:30;7.10;99.90
5806;DHT22;2929;50.810;8.342;2023-04-22T05:17:58;7.10;99.90
5806;DHT22;2929;50.810;8.342;2023-04-22T05:20:25;7.10;99.90
5806;DHT22;2929;50.810;8.342;2023-04-22T05:22:52;7.20;99.90
5806;DHT22;2929;50.810;8.342;2023-04-22T05:25:20;7.20;99.90
5806;DHT22;2929;50.810;8.342;2023-04-22T05:27:57;7.30;99.90
5806;DHT22;2929;50.810;8.342;2023-04-22T05:30:28;7.30;99.90
5806;DHT22;2929;50.810;8.342;2023-04-22T05:32:55;7.40;99.90
5806;DHT22;2929;50.810;8.342;2023-04-22T05:35:23;7.40;99.90
5806;DHT22;2929;50.810;8.342;2023-04-22T05:37:50;7.60;99.90
5806;DHT22;2929;50.810;8.342;2023-04-22T05:40:17;7.70;99.90
5806;DHT22;2929;50.810;8.342;2023-04-22T05:42:45;7.70;99.90
5806;DHT22;2929;50.810;8.342;2023-04-22T05:45:12;7.80;99.90
5806;DHT22;2929;50.810;8.342;2023-04-22T05:47:40;7.80;99.90
5806;DHT22;2929;50.810;8.342;2023-04-22T05:50:08;7.80;99.90
5806;DHT22;2929;50.810;8.342;2023-04-22T05:52:56;7.90;99.90
5806;DHT22;2929;50.810;8.342;2023-04-22T05:55:23;8.00;99.90
5806;DHT22;2929;50.810;8.342;2023-04-22T05:57:55;8.20;99.90
5806;DHT22;2929;50.810;8.342;2023-04-22T06:00:50;8.10;99.90
5806;DHT22;2929;50.810;8.342;2023-04-22T06:03:36;8.20;99.90
5806;DHT22;2929;50.810;8.342;2023-04-22T06:06:03;8.30;99.90
5806;DHT22;2929;50.810;8.342;2023-04-22T06:08:32;8.40;99.90
5806;DHT22;2929;50.810;8.342;2023-04-22T06:10:59;8.40;99.90
5806;DHT22;2929;50.810;8.342;2023-04-22T06:13:29;8.50;99.90
5806;DHT22;2929;50.810;8.342;2023-04-22T06:15:56;8.70;99.90
5806;DHT22;2929;50.810;8.342;2023-04-22T06:18:24;8.80;99.90
5806;DHT22;2929;50.810;8.342;2023-04-22T06:20:51;8.90;99.90
5806;DHT22;2929;50.810;8.342;2023-04-22T06:23:18;9.00;99.90
5806;DHT22;2929;50.810;8.342;2023-04-22T06:25:47;9.10;99.90
5806;DHT22;2929;50.810;8.342;2023-04-22T06:28:15;9.20;99.90
5806;DHT22;2929;50.810;8.342;2023-04-22T06:30:43;9.20;99.90
5806;DHT22;2929;50.810;8.342;2023-04-22T06:33:11;9.30;99.90
5806;DHT22;2929;50.810;8.342;2023-04-22T06:35:38;9.40;99.90
5806;DHT22;2929;50.810;8.342;2023-04-22T06:38:06;9.50;99.90
5806;DHT22;2929;50.810;8.342;2023-04-22T06:40:41;9.50;99.90
5806;DHT22;2929;50.810;8.342;2023-04-22T06:43:16;9.60;99.90
5806;DHT22;2929;50.810;8.342;2023-04-22T06:46:03;9.80;99.90
5806;DHT22;2929;50.810;8.342;2023-04-22T06:48:49;9.90;99.90
5806;DHT22;2929;50.810;8.342;2023-04-22T06:51:42;10.10;99.90
5806;DHT22;2929;50.810;8.342;2023-04-22T06:54:09;10.10;99.90
5806;DHT22;2929;50.810;8.342;2023-04-22T06:56:36;10.20;99.90
5806;DHT22;2929;50.810;8.342;2023-04-22T07:02:20;10.50;99.90
5806;DHT22;2929;50.810;8.342;2023-04-22T07:04:47;10.70;99.90
5806;DHT22;2929;50.810;8.342;2023-04-22T07:07:14;10.80;99.90
5806;DHT22;2929;50.810;8.342;2023-04-22T07:09:41;11.00;99.90
5806;DHT22;2929;50.810;8.342;2023-04-22T07:12:08;11.10;99.90
5806;DHT22;2929;50.810;8.342;2023-04-22T07:14:36;11.20;99.90
5806;DHT22;2929;50.810;8.342;2023-04-22T07:17:06;11.30;99.90
5806;DHT22;2929;50.810;8.342;2023-04-22T07:19:34;11.50;99.90
5806;DHT22;2929;50.810;8.342;2023-04-22T07:22:01;11.60;99.90
5806;DHT22;2929;50.810;8.342;2023-04-22T07:24:29;11.60;99.90
5806;DHT22;2929;50.810;8.342;2023-04-22T07:26:56;11.70;99.90
5806;DHT22;2929;50.810;8.342;2023-04-22T07:29:23;11.70;99.90
5806;DHT22;2929;50.810;8.342;2023-04-22T07:31:50;11.80;99.90
5806;DHT22;2929;50.810;8.342;2023-04-22T07:34:17;11.90;99.90
5806;DHT22;2929;50.810;8.342;2023-04-22T07:36:46;11.90;99.90
5806;DHT22;2929;50.810;8.342;2023-04-22T07:39:13;12.00;99.90
5806;DHT22;2929;50.810;8.342;2023-04-22T07:41:40;12.10;99.90
5806;DHT22;2929;50.810;8.342;2023-04-22T07:44:07;12.30;99.90
5806;DHT22;2929;50.810;8.342;2023-04-22T07:46:35;12.20;99.90
5806;DHT22;2929;50.810;8.342;2023-04-22T07:49:02;12.40;99.90
5806;DHT22;2929;50.810;8.342;2023-04-22T07:51:29;12.60;99.90
5806;DHT22;2929;50.810;8.342;2023-04-22T07:53:58;12.70;99.90
5806;DHT22;2929;50.810;8.342;2023-04-22T07:56:25;12.80;99.90
5806;DHT22;2929;50.810;8.342;2023-04-22T07:58:52;12.90;99.90
5806;DHT22;2929;50.810;8.342;2023-04-22T08:01:19;13.00;99.90
5806;DHT22;2929;50.810;8.342;2023-04-22T08:03:46;13.00;99.90
5806;DHT22;2929;50.810;8.342;2023-04-22T08:06:13;13.10;99.90
5806;DHT22;2929;50.810;8.342;2023-04-22T08:08:40;13.20;99.90
5806;DHT22;2929;50.810;8.342;2023-04-22T08:11:09;13.20;99.90
5806;DHT22;2929;50.810;8.342;2023-04-22T08:13:36;13.30;99.90
5806;DHT22;2929;50.810;8.342;2023-04-22T08:16:03;13.30;99.90
5806;DHT22;2929;50.810;8.342;2023-04-22T08:18:32;13.50;99.90
5806;DHT22;2929;50.810;8.342;2023-04-22T08:20:59;13.70;99.90
5806;DHT22;2929;50.810;8.342;2023-04-22T08:23:26;13.80;99.90
5806;DHT22;2929;50.810;8.342;2023-04-22T08:25:53;14.00;99.90
5806;DHT22;2929;50.810;8.342;2023-04-22T08:28:21;14.10;99.90
5806;DHT22;2929;50.810;8.342;2023-04-22T08:30:49;14.10;99.90
5806;DHT22;2929;50.810;8.342;2023-04-22T08:33:16;14.20;99.90
5806;DHT22;2929;50.810;8.342;2023-04-22T08:35:43;14.40;99.90
5806;DHT22;2929;50.810;8.342;2023-04-22T08:38:10;14.60;99.90
5806;DHT22;2929;50.810;8.342;2023-04-22T08:40:39;14.70;99.90
5806;DHT22;2929;50.810;8.342;2023-04-22T08:43:07;14.90;99.90
5806;DHT22;2929;50.810;8.342;2023-04-22T08:45:36;14.90;99.90
5806;DHT22;2929;50.810;8.342;2023-04-22T08:48:06;15.10;99.90
5806;DHT22;2929;50.810;8.342;2023-04-22T08:50:36;15.20;99.90
5806;DHT22;2929;50.810;8.342;2023-04-22T08:53:04;15.30;99.90
5806;DHT22;2929;50.810;8.342;2023-04-22T08:55:31;15.40;99.90
5806;DHT22;2929;50.810;8.342;2023-04-22T08:58:00;15.40;99.90
5806;DHT22;2929;50.810;8.342;2023-04-22T09:00:29;15.50;99.90
5806;DHT22;2929;50.810;8.342;2023-04-22T09:03:00;15.60;99.90
5806;DHT22;2929;50.810;8.342;2023-04-22T09:05:28;15.80;99.90
5806;DHT22;2929;50.810;8.342;2023-04-22T09:07:58;15.90;99.90
5806;DHT22;2929;50.810;8.342;2023-04-22T09:10:25;16.10;99.90
5806;DHT22;2929;50.810;8.342;2023-04-22T09:12:53;16.20;99.90
5806;DHT22;2929;50.810;8.342;2023-04-22T09:15:21;16.20;99.90
5806;DHT22;2929;50.810;8.342;2023-04-22T09:17:50;16.30;99.90
5806;DHT22;2929;50.810;8.342;2023-04-22T09:20:25;16.50;99.90
5806;DHT22;2929;50.810;8.342;2023-04-22T09:22:52;16.60;99.90
5806;DHT22;2929;50.810;8.342;2023-04-22T09:25:21;16.80;99.90
5806;DHT22;2929;50.810;8.342;2023-04-22T09:27:48;16.90;99.90
5806;DHT22;2929;50.810;8.342;2023-04-22T09:30:17;16.90;99.90
5806;DHT22;2929;50.810;8.342;2023-04-22T09:32:51;16.80;99.90
5806;DHT22;2929;50.810;8.342;2023-04-22T09:35:25;16.80;99.90
5806;DHT22;2929;50.810;8.342;2023-04-22T09:37:52;16.90;99.90
5806;DHT22;2929;50.810;8.342;2023-04-22T09:40:20;16.90;99.90
5806;DHT22;2929;50.810;8.342;2023-04-22T09:42:48;17.10;99.90
5806;DHT22;2929;50.810;8.342;2023-04-22T09:45:24;17.30;99.90
5806;DHT22;2929;50.810;8.342;2023-04-22T09:47:53;17.60;99.90
5806;DHT22;2929;50.810;8.342;2023-04-22T09:50:20;17.70;99.90
5806;DHT22;2929;50.810;8.342;2023-04-22T09:52:55;17.80;99.90
5806;DHT22;2929;50.810;8.342;2023-04-22T09:55:23;17.90;99.90
5806;DHT22;2929;50.810;8.342;2023-04-22T09:57:53;17.80;99.90
5806;DHT22;2929;50.810;8.342;2023-04-22T10:00:21;17.70;99.90
5806;DHT22;2929;50.810;8.342;2023-04-22T10:02:50;17.70;99.90
5806;DHT22;2929;50.810;8.342;2023-04-22T10:05:17;17.80;99.90
5806;DHT22;2929;50.810;8.342;2023-04-22T10:07:44;17.90;99.90
5806;DHT22;2929;50.810;8.342;2023-04-22T10:10:13;17.90;99.90
5806;DHT22;2929;50.810;8.342;2023-04-22T10:12:41;17.90;99.90
5806;DHT22;2929;50.810;8.342;2023-04-22T10:15:08;17.90;99.90
5806;DHT22;2929;50.810;8.342;2023-04-22T10:17:37;18.00;99.90
5806;DHT22;2929;50.810;8.342;2023-04-22T10:20:09;18.00;99.90
5806;DHT22;2929;50.810;8.342;2023-04-22T10:22:40;17.90;99.90
5806;DHT22;2929;50.810;8.342;2023-04-22T10:25:14;17.90;99.90
5806;DHT22;2929;50.810;8.342;2023-04-22T10:27:52;18.00;99.90
5806;DHT22;2929;50.810;8.342;2023-04-22T10:30:26;18.00;99.90
5806;DHT22;2929;50.810;8.342;2023-04-22T10:32:53;18.20;99.90
5806;DHT22;2929;50.810;8.342;2023-04-22T10:35:26;18.40;99.90
5806;DHT22;2929;50.810;8.342;2023-04-22T10:37:54;18.70;99.90
5806;DHT22;2929;50.810;8.342;2023-04-22T10:40:22;19.00;99.90
5806;DHT22;2929;50.810;8.342;2023-04-22T10:42:51;19.30;99.90
5806;DHT22;2929;50.810;8.342;2023-04-22T10:45:24;19.10;99.90
5806;DHT22;2929;50.810;8.342;2023-04-22T10:47:51;18.80;99.90
5806;DHT22;2929;50.810;8.342;2023-04-22T10:50:21;18.70;99.90
5806;DHT22;2929;50.810;8.342;2023-04-22T10:52:53;18.50;99.90
5806;DHT22;2929;50.810;8.342;2023-04-22T10:55:22;18.40;99.90
5806;DHT22;2929;50.810;8.342;2023-04-22T10:57:51;18.30;99.90
5806;DHT22;2929;50.810;8.342;2023-04-22T11:00:22;18.50;99.90
5806;DHT22;2929;50.810;8.342;2023-04-22T11:02:56;18.60;99.90
5806;DHT22;2929;50.810;8.342;2023-04-22T11:05:32;18.70;99.90
5806;DHT22;2929;50.810;8.342;2023-04-22T11:08:02;18.90;99.90
5806;DHT22;2929;50.810;8.342;2023-04-22T11:10:34;18.90;99.90
5806;DHT22;2929;50.810;8.342;2023-04-22T11:13:06;19.10;99.90
5806;DHT22;2929;50.810;8.342;2023-04-22T11:15:35;19.20;99.90
5806;DHT22;2929;50.810;8.342;2023-04-22T11:18:03;19.50;99.90
5806;DHT22;2929;50.810;8.342;2023-04-22T11:20:33;20.10;99.90
5806;DHT22;2929;50.810;8.342;2023-04-22T11:23:02;20.40;99.90
5806;DHT22;2929;50.810;8.342;2023-04-22T11:25:29;20.40;99.60
5806;DHT22;2929;50.810;8.342;2023-04-22T11:27:58;20.10;99.20
5806;DHT22;2929;50.810;8.342;2023-04-22T11:30:26;20.40;99.60
5806;DHT22;2929;50.810;8.342;2023-04-22T11:32:55;20.50;98.70
5806;DHT22;2929;50.810;8.342;2023-04-22T11:35:25;20.80;99.00
5806;DHT22;2929;50.810;8.342;2023-04-22T11:37:54;20.70;94.70
5806;DHT22;2929;50.810;8.342;2023-04-22T11:40:23;20.60;94.70
5806;DHT22;2929;50.810;8.342;2023-04-22T11:42:51;20.90;97.50
5806;DHT22;2929;50.810;8.342;2023-04-22T11:45:20;21.40;95.80
5806;DHT22;2929;50.810;8.342;2023-04-22T11:47:48;21.60;94.80
5806;DHT22;2929;50.810;8.342;2023-04-22T11:50:17;21.80;92.70
5806;DHT22;2929;50.810;8.342;2023-04-22T11:52:48;21.70;92.20
5806;DHT22;2929;50.810;8.342;2023-04-22T11:55:16;21.70;91.30
5806;DHT22;2929;50.810;8.342;2023-04-22T11:57:45;21.60;90.70
5806;DHT22;2929;50.810;8.342;2023-04-22T12:00:17;21.60;93.30
5806;DHT22;2929;50.810;8.342;2023-04-22T12:02:55;21.30;92.80
5806;DHT22;2929;50.810;8.342;2023-04-22T12:05:36;21.10;92.20
5806;DHT22;2929;50.810;8.342;2023-04-22T12:08:07;21.20;90.80
5806;DHT22;2929;50.810;8.342;2023-04-22T12:10:39;21.20;91.70
5806;DHT22;2929;50.810;8.342;2023-04-22T12:13:07;21.20;94.30
5806;DHT22;2929;50.810;8.342;2023-04-22T12:15:39;21.50;93.90
5806;DHT22;2929;50.810;8.342;2023-04-22T12:18:08;21.80;93.90
5806;DHT22;2929;50.810;8.342;2023-04-22T12:20:37;21.90;94.30
5806;DHT22;2929;50.810;8.342;2023-04-22T12:23:05;21.90;93.90
5806;DHT22;2929;50.810;8.342;2023-04-22T12:25:37;22.00;93.00
5806;DHT22;2929;50.810;8.342;2023-04-22T12:28:04;22.10;90.50
5806;DHT22;2929;50.810;8.342;2023-04-22T12:30:31;22.30;90.70
5806;DHT22;2929;50.810;8.342;2023-04-22T12:32:58;21.80;91.20
5806;DHT22;2929;50.810;8.342;2023-04-22T12:35:26;21.90;91.60
5806;DHT22;2929;50.810;8.342;2023-04-22T12:37:53;21.80;90.60
5806;DHT22;2929;50.810;8.342;2023-04-22T12:40:20;21.70;90.80
5806;DHT22;2929;50.810;8.342;2023-04-22T12:42:48;22.00;92.20
5806;DHT22;2929;50.810;8.342;2023-04-22T12:45:15;22.00;90.40
5806;DHT22;2929;50.810;8.342;2023-04-22T12:47:42;22.10;90.30
5806;DHT22;2929;50.810;8.342;2023-04-22T12:50:10;22.00;88.10
5806;DHT22;2929;50.810;8.342;2023-04-22T12:52:39;22.30;90.70
5806;DHT22;2929;50.810;8.342;2023-04-22T12:55:07;22.40;90.20
5806;DHT22;2929;50.810;8.342;2023-04-22T12:57:35;22.70;90.90
5806;DHT22;2929;50.810;8.342;2023-04-22T13:00:03;22.40;89.80
5806;DHT22;2929;50.810;8.342;2023-04-22T13:02:31;21.90;90.00
5806;DHT22;2929;50.810;8.342;2023-04-22T13:04:59;22.20;89.00
5806;DHT22;2929;50.810;8.342;2023-04-22T13:07:26;22.40;90.30
5806;DHT22;2929;50.810;8.342;2023-04-22T13:09:54;22.30;90.30
5806;DHT22;2929;50.810;8.342;2023-04-22T13:12:21;22.30;90.10
5806;DHT22;2929;50.810;8.342;2023-04-22T13:14:48;22.50;90.00
5806;DHT22;2929;50.810;8.342;2023-04-22T13:17:16;22.90;90.90
5806;DHT22;2929;50.810;8.342;2023-04-22T13:19:43;22.60;90.40
5806;DHT22;2929;50.810;8.342;2023-04-22T13:22:10;22.00;91.90
5806;DHT22;2929;50.810;8.342;2023-04-22T13:24:37;22.50;90.90
5806;DHT22;2929;50.810;8.342;2023-04-22T13:27:06;22.00;89.70
5806;DHT22;2929;50.810;8.342;2023-04-22T13:29:33;21.30;91.40
5806;DHT22;2929;50.810;8.342;2023-04-22T13:32:01;21.20;92.50
5806;DHT22;2929;50.810;8.342;2023-04-22T13:34:28;21.00;92.40
5806;DHT22;2929;50.810;8.342;2023-04-22T13:36:55;20.80;92.20
5806;DHT22;2929;50.810;8.342;2023-04-22T13:39:23;20.30;93.30
5806;DHT22;2929;50.810;8.342;2023-04-22T13:41:50;20.10;94.20
5806;DHT22;2929;50.810;8.342;2023-04-22T13:44:19;20.00;93.80
5806;DHT22;2929;50.810;8.342;2023-04-22T13:46:46;20.00;93.40
5806;DHT22;2929;50.810;8.342;2023-04-22T13:49:13;19.90;94.10
5806;DHT22;2929;50.810;8.342;2023-04-22T13:51:40;19.80;94.90
5806;DHT22;2929;50.810;8.342;2023-04-22T13:54:07;19.70;95.50
5806;DHT22;2929;50.810;8.342;2023-04-22T13:56:34;19.50;95.40
5806;DHT22;2929;50.810;8.342;2023-04-22T13:59:01;19.50;95.60
5806;DHT22;2929;50.810;8.342;2023-04-22T14:01:29;19.40;96.90
5806;DHT22;2929;50.810;8.342;2023-04-22T14:03:57;19.30;97.30
5806;DHT22;2929;50.810;8.342;2023-04-22T14:06:25;19.20;96.20
5806;DHT22;2929;50.810;8.342;2023-04-22T14:08:52;19.00;96.90
5806;DHT22;2929;50.810;8.342;2023-04-22T14:11:19;19.00;97.30
5806;DHT22;2929;50.810;8.342;2023-04-22T14:13:46;18.90;98.60
5806;DHT22;2929;50.810;8.342;2023-04-22T14:16:14;18.70;99.90
5806;DHT22;2929;50.810;8.342;2023-04-22T14:18:43;18.50;99.90
5806;DHT22;2929;50.810;8.342;2023-04-22T14:21:11;18.40;99.90
5806;DHT22;2929;50.810;8.342;2023-04-22T14:23:39;18.30;99.90
5806;DHT22;2929;50.810;8.342;2023-04-22T14:26:08;18.30;99.90
5806;DHT22;2929;50.810;8.342;2023-04-22T14:28:37;18.20;99.90
5806;DHT22;2929;50.810;8.342;2023-04-22T14:31:05;18.20;99.90
5806;DHT22;2929;50.810;8.342;2023-04-22T14:33:32;18.20;99.90
5806;DHT22;2929;50.810;8.342;2023-04-22T14:36:01;18.20;99.90
5806;DHT22;2929;50.810;8.342;2023-04-22T14:38:28;18.20;99.90
5806;DHT22;2929;50.810;8.342;2023-04-22T14:40:56;18.20;99.90
5806;DHT22;2929;50.810;8.342;2023-04-22T14:43:23;18.20;99.90
5806;DHT22;2929;50.810;8.342;2023-04-22T14:45:50;18.00;99.90
5806;DHT22;2929;50.810;8.342;2023-04-22T14:48:17;17.90;99.90
5806;DHT22;2929;50.810;8.342;2023-04-22T14:50:44;17.80;99.90
5806;DHT22;2929;50.810;8.342;2023-04-22T14:53:14;17.60;99.90
5806;DHT22;2929;50.810;8.342;2023-04-22T14:55:41;17.40;99.90
5806;DHT22;2929;50.810;8.342;2023-04-22T14:58:09;17.30;99.90
5806;DHT22;2929;50.810;8.342;2023-04-22T15:00:36;17.20;99.90
5806;DHT22;2929;50.810;8.342;2023-04-22T15:03:03;17.10;99.90
5806;DHT22;2929;50.810;8.342;2023-04-22T15:05:30;17.10;99.90
5806;DHT22;2929;50.810;8.342;2023-04-22T15:07:58;17.10;99.90
5806;DHT22;2929;50.810;8.342;2023-04-22T15:10:26;17.00;99.90
5806;DHT22;2929;50.810;8.342;2023-04-22T15:12:53;17.00;99.90
5806;DHT22;2929;50.810;8.342;2023-04-22T15:15:21;17.00;99.90
5806;DHT22;2929;50.810;8.342;2023-04-22T15:17:49;17.00;99.90
5806;DHT22;2929;50.810;8.342;2023-04-22T15:20:16;17.00;99.90
5806;DHT22;2929;50.810;8.342;2023-04-22T15:22:45;17.00;99.90
5806;DHT22;2929;50.810;8.342;2023-04-22T15:25:14;16.90;99.90
5806;DHT22;2929;50.810;8.342;2023-04-22T15:27:44;16.90;99.90
5806;DHT22;2929;50.810;8.342;2023-04-22T15:30:11;16.90;99.90
5806;DHT22;2929;50.810;8.342;2023-04-22T15:32:39;16.90;99.90
5806;DHT22;2929;50.810;8.342;2023-04-22T15:35:07;16.90;99.90
5806;DHT22;2929;50.810;8.342;2023-04-22T15:37:35;16.80;99.90
5806;DHT22;2929;50.810;8.342;2023-04-22T15:40:03;16.80;99.90
5806;DHT22;2929;50.810;8.342;2023-04-22T15:42:31;16.90;99.90
5806;DHT22;2929;50.810;8.342;2023-04-22T15:45:00;16.90;99.90
5806;DHT22;2929;50.810;8.342;2023-04-22T15:47:28;16.90;99.90
5806;DHT22;2929;50.810;8.342;2023-04-22T15:49:55;16.90;99.90
5806;DHT22;2929;50.810;8.342;2023-04-22T15:52:31;17.00;99.90
5806;DHT22;2929;50.810;8.342;2023-04-22T15:54:59;17.00;99.90
5806;DHT22;2929;50.810;8.342;2023-04-22T15:57:29;17.10;99.90
5806;DHT22;2929;50.810;8.342;2023-04-22T16:00:02;17.10;99.90
5806;DHT22;2929;50.810;8.342;2023-04-22T16:02:39;17.20;99.90
5806;DHT22;2929;50.810;8.342;2023-04-22T16:05:07;17.10;99.90
5806;DHT22;2929;50.810;8.342;2023-04-22T16:07:35;17.10;99.90
5806;DHT22;2929;50.810;8.342;2023-04-22T16:10:02;17.20;99.90
5806;DHT22;2929;50.810;8.342;2023-04-22T16:12:30;17.20;99.90
5806;DHT22;2929;50.810;8.342;2023-04-22T16:14:57;17.20;99.90
5806;DHT22;2929;50.810;8.342;2023-04-22T16:17:26;17.20;99.90
5806;DHT22;2929;50.810;8.342;2023-04-22T16:19:54;17.20;99.90
5806;DHT22;2929;50.810;8.342;2023-04-22T16:22:21;17.20;99.90